sensor_id;sensor_type;location;lat;lon;timestamp;pressure;altitude;pressure_sealevel;temperature;humidity
72857;BME280;62742;52.136;4.500;2022-09-01T00:02:15;102301.78;;;16.77;67.33
72857;BME280;62742;52.136;4.500;2022-09-01T00:04:43;102304.75;;;16.58;68.06
72857;BME280;62742;52.136;4.500;2022-09-01T00:07:12;102300.22;;;16.65;67.90
72857;BME280;62742;52.136;4.500;2022-09-01T00:09:39;102297.78;;;16.53;68.50
72857;BME280;62742;52.136;4.500;2022-09-01T00:12:07;102302.03;;;16.61;68.14
72857;BME280;62742;52.136;4.500;2022-09-01T00:14:37;102300.22;;;16.63;68.08
72857;BME280;62742;52.136;4.500;2022-09-01T00:17:08;102290.84;;;16.44;68.79
72857;BME280;62742;52.136;4.500;2022-09-01T00:19:37;102296.13;;;16.47;68.63
72857;BME280;62742;52.136;4.500;2022-09-01T00:22:05;102294.47;;;16.40;69.09
72857;BME280;62742;52.136;4.500;2022-09-01T00:24:33;102293.53;;;16.42;69.31
72857;BME280;62742;52.136;4.500;2022-09-01T00:27:00;102294.50;;;16.37;69.28
72857;BME280;62742;52.136;4.500;2022-09-01T00:29:26;102298.97;;;16.35;69.06
72857;BME280;62742;52.136;4.500;2022-09-01T00:31:53;102295.38;;;16.37;69.01
72857;BME280;62742;52.136;4.500;2022-09-01T00:34:20;102286.50;;;16.40;68.93
72857;BME280;62742;52.136;4.500;2022-09-01T00:36:47;102286.78;;;16.23;69.61
72857;BME280;62742;52.136;4.500;2022-09-01T00:39:14;102289.56;;;16.14;69.86
72857;BME280;62742;52.136;4.500;2022-09-01T00:41:42;102287.63;;;16.25;69.64
72857;BME280;62742;52.136;4.500;2022-09-01T00:44:14;102290.13;;;16.33;69.38
72857;BME280;62742;52.136;4.500;2022-09-01T00:46:47;102288.66;;;16.16;69.95
72857;BME280;62742;52.136;4.500;2022-09-01T00:52:22;102286.78;;;16.23;69.74
72857;BME280;62742;52.136;4.500;2022-09-01T00:54:57;102277.31;;;16.06;69.89
72857;BME280;62742;52.136;4.500;2022-09-01T00:57:28;102278.28;;;16.01;70.58
72857;BME280;62742;52.136;4.500;2022-09-01T00:59:58;102278.28;;;16.01;70.09
72857;BME280;62742;52.136;4.500;2022-09-01T01:02:29;102273.75;;;16.07;69.97
72857;BME280;62742;52.136;4.500;2022-09-01T01:04:56;102276.50;;;16.00;69.96
72857;BME280;62742;52.136;4.500;2022-09-01T01:07:24;102274.72;;;16.02;70.28
72857;BME280;62742;52.136;4.500;2022-09-01T01:09:53;102273.81;;;16.04;70.16
72857;BME280;62742;52.136;4.500;2022-09-01T01:12:20;102267.78;;;15.93;70.65
72857;BME280;62742;52.136;4.500;2022-09-01T01:14:48;102265.13;;;15.93;70.47
72857;BME280;62742;52.136;4.500;2022-09-01T01:17:17;102266.09;;;15.87;70.76
72857;BME280;62742;52.136;4.500;2022-09-01T01:19:48;102261.06;;;15.66;71.57
72857;BME280;62742;52.136;4.500;2022-09-01T01:25:40;102268.13;;;15.67;71.48
72857;BME280;62742;52.136;4.500;2022-09-01T01:30:50;102267.16;;;15.73;71.19
72857;BME280;62742;52.136;4.500;2022-09-01T01:33:25;102273.31;;;15.73;71.21
72857;BME280;62742;52.136;4.500;2022-09-01T01:35:54;102262.81;;;15.67;71.58
72857;BME280;62742;52.136;4.500;2022-09-01T01:38:23;102275.09;;;15.74;71.38
72857;BME280;62742;52.136;4.500;2022-09-01T01:40:51;102264.53;;;15.69;71.66
72857;BME280;62742;52.136;4.500;2022-09-01T01:43:21;102266.31;;;15.69;71.60
72857;BME280;62742;52.136;4.500;2022-09-01T01:45:52;102269.78;;;15.74;71.30
72857;BME280;62742;52.136;4.500;2022-09-01T01:48:24;102266.44;;;15.61;72.15
72857;BME280;62742;52.136;4.500;2022-09-01T01:50:52;102260.53;;;15.41;72.68
72857;BME280;62742;52.136;4.500;2022-09-01T01:53:20;102266.53;;;15.55;72.30
72857;BME280;62742;52.136;4.500;2022-09-01T01:55:48;102268.41;;;15.45;72.34
72857;BME280;62742;52.136;4.500;2022-09-01T01:58:16;102264.88;;;15.46;72.67
72857;BME280;62742;52.136;4.500;2022-09-01T02:00:45;102253.47;;;15.40;72.74
72857;BME280;62742;52.136;4.500;2022-09-01T02:03:15;102263.88;;;15.55;72.19
72857;BME280;62742;52.136;4.500;2022-09-01T02:06:06;102261.38;;;15.43;72.86
72857;BME280;62742;52.136;4.500;2022-09-01T02:08:36;102261.28;;;15.50;72.51
72857;BME280;62742;52.136;4.500;2022-09-01T02:11:05;102260.28;;;15.59;72.15
72857;BME280;62742;52.136;4.500;2022-09-01T02:13:33;102260.41;;;15.48;72.68
72857;BME280;62742;52.136;4.500;2022-09-01T02:16:05;102260.53;;;15.41;72.79
72857;BME280;62742;52.136;4.500;2022-09-01T02:18:38;102253.47;;;15.41;73.07
72857;BME280;62742;52.136;4.500;2022-09-01T02:21:08;102262.38;;;15.34;73.06
72857;BME280;62742;52.136;4.500;2022-09-01T02:23:38;102256.22;;;15.32;73.15
72857;BME280;62742;52.136;4.500;2022-09-01T02:26:08;102261.50;;;15.32;73.45
72857;BME280;62742;52.136;4.500;2022-09-01T02:28:38;102258.97;;;15.24;73.62
72857;BME280;62742;52.136;4.500;2022-09-01T02:31:08;102250.91;;;15.32;73.24
72857;BME280;62742;52.136;4.500;2022-09-01T02:33:38;102260.78;;;15.19;73.81
72857;BME280;62742;52.136;4.500;2022-09-01T02:36:12;102254.63;;;15.19;73.70
72857;BME280;62742;52.136;4.500;2022-09-01T02:38:42;102249.16;;;15.34;73.17
72857;BME280;62742;52.136;4.500;2022-09-01T02:41:11;102249.16;;;15.34;73.38
72857;BME280;62742;52.136;4.500;2022-09-01T02:43:40;102242.00;;;15.39;73.31
72857;BME280;62742;52.136;4.500;2022-09-01T02:46:12;102244.56;;;15.44;72.84
72857;BME280;62742;52.136;4.500;2022-09-01T02:48:42;102250.91;;;15.32;73.16
72857;BME280;62742;52.136;4.500;2022-09-01T02:51:14;102239.59;;;15.21;73.55
72857;BME280;62742;52.136;4.500;2022-09-01T02:53:43;102242.16;;;15.27;73.52
72857;BME280;62742;52.136;4.500;2022-09-01T02:56:14;102236.94;;;15.21;73.71
72857;BME280;62742;52.136;4.500;2022-09-01T02:58:43;102237.03;;;15.11;73.83
72857;BME280;62742;52.136;4.500;2022-09-01T03:01:17;102245.69;;;15.29;73.29
72857;BME280;62742;52.136;4.500;2022-09-01T03:03:52;102242.28;;;15.18;73.47
72857;BME280;62742;52.136;4.500;2022-09-01T03:06:21;102237.19;;;14.99;74.23
72857;BME280;62742;52.136;4.500;2022-09-01T03:08:54;102238.94;;;15.02;73.96
72857;BME280;62742;52.136;4.500;2022-09-01T03:11:25;102239.09;;;14.88;74.35
72857;BME280;62742;52.136;4.500;2022-09-01T03:13:54;102232.75;;;15.00;74.39
72857;BME280;62742;52.136;4.500;2022-09-01T03:16:21;102233.66;;;15.00;74.19
72857;BME280;62742;52.136;4.500;2022-09-01T03:18:48;102237.94;;;15.12;73.72
72857;BME280;62742;52.136;4.500;2022-09-01T03:21:15;102239.75;;;15.08;73.26
72857;BME280;62742;52.136;4.500;2022-09-01T03:23:44;102234.59;;;14.94;74.19
72857;BME280;62742;52.136;4.500;2022-09-01T03:26:13;102235.22;;;15.17;73.39
72857;BME280;62742;52.136;4.500;2022-09-01T03:28:41;102237.16;;;15.02;73.65
72857;BME280;62742;52.136;4.500;2022-09-01T03:31:07;102236.34;;;14.97;74.02
72857;BME280;62742;52.136;4.500;2022-09-01T03:33:34;102228.50;;;14.88;74.33
72857;BME280;62742;52.136;4.500;2022-09-01T03:36:02;102235.66;;;14.80;74.57
72857;BME280;62742;52.136;4.500;2022-09-01T03:38:30;102236.38;;;14.94;73.84
72857;BME280;62742;52.136;4.500;2022-09-01T03:40:59;102230.25;;;14.89;74.35
72857;BME280;62742;52.136;4.500;2022-09-01T03:43:30;102223.13;;;14.94;73.50
72857;BME280;62742;52.136;4.500;2022-09-01T03:45:59;102220.78;;;14.68;74.69
72857;BME280;62742;52.136;4.500;2022-09-01T03:48:29;102230.34;;;14.83;74.41
72857;BME280;62742;52.136;4.500;2022-09-01T03:50:58;102214.56;;;14.70;74.57
72857;BME280;62742;52.136;4.500;2022-09-01T03:53:30;102218.03;;;14.75;74.34
72857;BME280;62742;52.136;4.500;2022-09-01T03:55:59;102216.34;;;14.70;74.47
72857;BME280;62742;52.136;4.500;2022-09-01T03:58:26;102210.19;;;14.69;74.49
72857;BME280;62742;52.136;4.500;2022-09-01T04:00:56;102209.16;;;14.83;73.94
72857;BME280;62742;52.136;4.500;2022-09-01T04:03:28;102214.53;;;14.75;73.88
72857;BME280;62742;52.136;4.500;2022-09-01T04:05:58;102213.72;;;14.67;74.21
72857;BME280;62742;52.136;4.500;2022-09-01T04:08:27;102211.09;;;14.67;73.84
72857;BME280;62742;52.136;4.500;2022-09-01T04:10:58;102204.97;;;14.62;73.78
72857;BME280;62742;52.136;4.500;2022-09-01T04:13:38;102212.00;;;14.66;73.21
72857;BME280;62742;52.136;4.500;2022-09-01T04:16:12;102210.19;;;14.68;73.08
72857;BME280;62742;52.136;4.500;2022-09-01T04:19:12;102208.47;;;14.64;73.01
72857;BME280;62742;52.136;4.500;2022-09-01T04:22:05;102209.22;;;14.76;72.21
72857;BME280;62742;52.136;4.500;2022-09-01T04:24:33;102208.53;;;14.61;72.70
72857;BME280;62742;52.136;4.500;2022-09-01T04:27:01;102204.16;;;14.52;72.81
72857;BME280;62742;52.136;4.500;2022-09-01T04:29:29;102209.41;;;14.55;72.72
72857;BME280;62742;52.136;4.500;2022-09-01T04:32:00;102207.66;;;14.57;72.57
72857;BME280;62742;52.136;4.500;2022-09-01T04:34:33;102209.41;;;14.59;72.00
72857;BME280;62742;52.136;4.500;2022-09-01T04:37:10;102217.34;;;14.53;72.21
72857;BME280;62742;52.136;4.500;2022-09-01T04:39:51;102212.97;;;14.54;71.95
72857;BME280;62742;52.136;4.500;2022-09-01T04:42:21;102216.56;;;14.47;72.42
72857;BME280;62742;52.136;4.500;2022-09-01T04:44:50;102224.44;;;14.48;72.26
72857;BME280;62742;52.136;4.500;2022-09-01T04:47:19;102219.16;;;14.50;71.66
72857;BME280;62742;52.136;4.500;2022-09-01T04:49:56;102216.47;;;14.56;71.25
72857;BME280;62742;52.136;4.500;2022-09-01T04:52:27;102213.75;;;14.64;71.14
72857;BME280;62742;52.136;4.500;2022-09-01T04:54:53;102220.81;;;14.65;70.80
72857;BME280;62742;52.136;4.500;2022-09-01T04:57:21;102217.31;;;14.56;71.25
72857;BME280;62742;52.136;4.500;2022-09-01T04:59:48;102208.53;;;14.56;71.01
72857;BME280;62742;52.136;4.500;2022-09-01T05:02:15;102216.38;;;14.65;70.89
72857;BME280;62742;52.136;4.500;2022-09-01T05:04:42;102209.25;;;14.72;70.59
72857;BME280;62742;52.136;4.500;2022-09-01T05:07:11;102211.16;;;14.62;70.88
72857;BME280;62742;52.136;4.500;2022-09-01T05:09:39;102210.25;;;14.63;70.91
72857;BME280;62742;52.136;4.500;2022-09-01T05:12:06;102206.69;;;14.66;70.88
72857;BME280;62742;52.136;4.500;2022-09-01T05:14:44;102209.41;;;14.59;70.93
72857;BME280;62742;52.136;4.500;2022-09-01T05:17:14;102207.59;;;14.63;70.94
72857;BME280;62742;52.136;4.500;2022-09-01T05:19:43;102209.34;;;14.67;70.86
72857;BME280;62742;52.136;4.500;2022-09-01T05:22:17;102214.66;;;14.64;70.55
72857;BME280;62742;52.136;4.500;2022-09-01T05:24:48;102219.00;;;14.70;70.35
72857;BME280;62742;52.136;4.500;2022-09-01T05:27:16;102211.06;;;14.70;70.31
72857;BME280;62742;52.136;4.500;2022-09-01T05:29:44;102215.53;;;14.63;70.87
72857;BME280;62742;52.136;4.500;2022-09-01T05:32:12;102210.94;;;14.79;69.93
72857;BME280;62742;52.136;4.500;2022-09-01T05:34:39;102213.75;;;14.65;70.32
72857;BME280;62742;52.136;4.500;2022-09-01T05:37:08;102218.00;;;14.80;70.37
72857;BME280;62742;52.136;4.500;2022-09-01T05:39:37;102222.41;;;14.83;69.72
72857;BME280;62742;52.136;4.500;2022-09-01T05:42:07;102214.53;;;14.73;69.92
72857;BME280;62742;52.136;4.500;2022-09-01T05:44:34;102214.50;;;14.80;70.13
72857;BME280;62742;52.136;4.500;2022-09-01T05:47:02;102217.97;;;14.85;69.39
72857;BME280;62742;52.136;4.500;2022-09-01T05:49:30;102228.41;;;14.97;69.37
72857;BME280;62742;52.136;4.500;2022-09-01T05:51:58;102223.97;;;14.96;69.60
72857;BME280;62742;52.136;4.500;2022-09-01T05:54:26;102223.97;;;14.96;68.70
72857;BME280;62742;52.136;4.500;2022-09-01T05:56:55;102226.63;;;14.96;69.00
72857;BME280;62742;52.136;4.500;2022-09-01T05:59:24;102225.63;;;15.08;68.75
72857;BME280;62742;52.136;4.500;2022-09-01T06:01:52;102221.25;;;15.04;68.71
72857;BME280;62742;52.136;4.500;2022-09-01T06:04:19;102232.00;;;14.91;68.90
72857;BME280;62742;52.136;4.500;2022-09-01T06:06:48;102230.22;;;14.90;68.99
72857;BME280;62742;52.136;4.500;2022-09-01T06:09:16;102227.78;;;14.72;69.72
72857;BME280;62742;52.136;4.500;2022-09-01T06:11:44;102226.78;;;14.84;69.38
72857;BME280;62742;52.136;4.500;2022-09-01T06:14:13;102233.75;;;14.91;69.37
72857;BME280;62742;52.136;4.500;2022-09-01T06:16:41;102226.63;;;14.98;69.11
72857;BME280;62742;52.136;4.500;2022-09-01T06:19:08;102231.69;;;15.18;68.12
72857;BME280;62742;52.136;4.500;2022-09-01T06:21:38;102221.94;;;15.21;68.08
72857;BME280;62742;52.136;4.500;2022-09-01T06:24:06;102226.38;;;15.18;67.97
72857;BME280;62742;52.136;4.500;2022-09-01T06:26:35;102229.03;;;15.18;68.14
72857;BME280;62742;52.136;4.500;2022-09-01T06:29:07;102222.75;;;15.25;67.80
72857;BME280;62742;52.136;4.500;2022-09-01T06:31:40;102227.88;;;15.37;67.13
72857;BME280;62742;52.136;4.500;2022-09-01T06:34:10;102223.38;;;16.07;66.23
72857;BME280;62742;52.136;4.500;2022-09-01T06:36:43;102224.28;;;16.06;64.85
72857;BME280;62742;52.136;4.500;2022-09-01T06:39:13;102229.66;;;16.00;64.59
72857;BME280;62742;52.136;4.500;2022-09-01T06:41:49;102227.81;;;16.05;64.42
72857;BME280;62742;52.136;4.500;2022-09-01T06:44:18;102226.09;;;16.03;65.18
72857;BME280;62742;52.136;4.500;2022-09-01T06:46:49;102230.59;;;15.98;64.96
72857;BME280;62742;52.136;4.500;2022-09-01T06:49:18;102232.38;;;15.97;64.80
72857;BME280;62742;52.136;4.500;2022-09-01T06:51:46;102234.97;;;16.00;64.80
72857;BME280;62742;52.136;4.500;2022-09-01T06:54:14;102239.34;;;16.03;65.02
72857;BME280;62742;52.136;4.500;2022-09-01T06:56:42;102230.94;;;16.31;64.51
72857;BME280;62742;52.136;4.500;2022-09-01T06:59:08;102232.63;;;16.86;63.30
72857;BME280;62742;52.136;4.500;2022-09-01T07:01:35;102239.38;;;17.45;60.95
72857;BME280;62742;52.136;4.500;2022-09-01T07:04:03;102228.03;;;18.15;60.49
72857;BME280;62742;52.136;4.500;2022-09-01T07:06:29;102232.16;;;18.61;58.70
72857;BME280;62742;52.136;4.500;2022-09-01T07:08:58;102234.28;;;18.82;56.16
72857;BME280;62742;52.136;4.500;2022-09-01T07:11:29;102233.78;;;18.99;56.25
72857;BME280;62742;52.136;4.500;2022-09-01T07:14:00;102237.25;;;19.03;56.40
72857;BME280;62742;52.136;4.500;2022-09-01T07:16:35;102234.91;;;18.91;55.04
72857;BME280;62742;52.136;4.500;2022-09-01T07:19:07;102240.06;;;18.64;55.49
72857;BME280;62742;52.136;4.500;2022-09-01T07:21:38;102241.16;;;18.57;55.75
72857;BME280;62742;52.136;4.500;2022-09-01T07:24:05;102240.94;;;18.97;55.44
72857;BME280;62742;52.136;4.500;2022-09-01T07:26:33;102236.31;;;19.35;53.89
72857;BME280;62742;52.136;4.500;2022-09-01T07:29:02;102233.66;;;19.63;53.62
72857;BME280;62742;52.136;4.500;2022-09-01T07:31:36;102230.72;;;19.73;54.56
72857;BME280;62742;52.136;4.500;2022-09-01T07:34:07;102238.13;;;20.20;53.47
72857;BME280;62742;52.136;4.500;2022-09-01T07:36:39;102231.81;;;19.95;52.51
72857;BME280;62742;52.136;4.500;2022-09-01T07:39:10;102226.16;;;20.05;53.14
72857;BME280;62742;52.136;4.500;2022-09-01T07:41:40;102230.97;;;20.20;52.22
72857;BME280;62742;52.136;4.500;2022-09-01T07:44:08;102234.47;;;19.95;52.13
72857;BME280;62742;52.136;4.500;2022-09-01T07:46:39;102226.88;;;19.83;53.41
72857;BME280;62742;52.136;4.500;2022-09-01T07:49:07;102227.13;;;19.74;52.84
72857;BME280;62742;52.136;4.500;2022-09-01T07:51:34;102239.13;;;20.15;53.75
72857;BME280;62742;52.136;4.500;2022-09-01T07:54:02;102232.81;;;19.91;52.63
72857;BME280;62742;52.136;4.500;2022-09-01T07:56:29;102230.88;;;20.23;52.55
72857;BME280;62742;52.136;4.500;2022-09-01T07:58:57;102235.81;;;20.61;52.76
72857;BME280;62742;52.136;4.500;2022-09-01T08:01:25;102233.88;;;20.14;51.55
72857;BME280;62742;52.136;4.500;2022-09-01T08:03:57;102231.88;;;20.46;51.17
72857;BME280;62742;52.136;4.500;2022-09-01T08:06:27;102237.13;;;19.95;52.17
72857;BME280;62742;52.136;4.500;2022-09-01T08:08:56;102241.75;;;20.70;51.65
72857;BME280;62742;52.136;4.500;2022-09-01T08:11:27;102239.78;;;20.76;51.45
72857;BME280;62742;52.136;4.500;2022-09-01T08:13:57;102250.00;;;21.13;50.77
72857;BME280;62742;52.136;4.500;2022-09-01T08:16:25;102245.28;;;20.71;50.07
72857;BME280;62742;52.136;4.500;2022-09-01T08:18:53;102240.53;;;20.79;51.05
72857;BME280;62742;52.136;4.500;2022-09-01T08:21:21;102245.34;;;21.18;50.22
72857;BME280;62742;52.136;4.500;2022-09-01T08:23:51;102244.22;;;21.24;49.29
72857;BME280;62742;52.136;4.500;2022-09-01T08:26:21;102248.72;;;21.47;49.90
72857;BME280;62742;52.136;4.500;2022-09-01T08:28:50;102251.63;;;21.64;49.68
72857;BME280;62742;52.136;4.500;2022-09-01T08:31:19;102245.16;;;21.70;49.56
72857;BME280;62742;52.136;4.500;2022-09-01T08:33:47;102245.41;;;21.40;49.89
72857;BME280;62742;52.136;4.500;2022-09-01T08:36:16;102248.50;;;21.75;49.00
72857;BME280;62742;52.136;4.500;2022-09-01T08:38:44;102240.78;;;21.90;48.52
72857;BME280;62742;52.136;4.500;2022-09-01T08:41:44;102238.66;;;21.98;48.23
72857;BME280;62742;52.136;4.500;2022-09-01T08:44:32;102248.50;;;21.75;48.28
72857;BME280;62742;52.136;4.500;2022-09-01T08:47:11;102251.78;;;21.60;48.28
72857;BME280;62742;52.136;4.500;2022-09-01T08:49:42;102242.00;;;21.59;48.79
72857;BME280;62742;52.136;4.500;2022-09-01T08:52:32;102244.91;;;21.76;49.01
72857;BME280;62742;52.136;4.500;2022-09-01T08:58:00;102236.44;;;21.87;48.59
72857;BME280;62742;52.136;4.500;2022-09-01T09:00:37;102239.28;;;21.60;49.32
72857;BME280;62742;52.136;4.500;2022-09-01T09:09:04;102235.34;;;22.35;48.13
72857;BME280;62742;52.136;4.500;2022-09-01T09:17:47;102217.81;;;23.09;46.55
72857;BME280;62742;52.136;4.500;2022-09-01T09:20:26;102212.09;;;23.36;44.88
72857;BME280;62742;52.136;4.500;2022-09-01T09:22:53;102218.16;;;23.01;45.20
72857;BME280;62742;52.136;4.500;2022-09-01T09:25:21;102212.19;;;23.15;45.63
72857;BME280;62742;52.136;4.500;2022-09-01T09:27:50;102209.97;;;23.61;45.59
72857;BME280;62742;52.136;4.500;2022-09-01T09:30:27;102220.34;;;23.88;43.97
72857;BME280;62742;52.136;4.500;2022-09-01T09:33:04;102201.63;;;24.21;44.21
72857;BME280;62742;52.136;4.500;2022-09-01T09:41:05;102207.13;;;24.55;43.09
72857;BME280;62742;52.136;4.500;2022-09-01T09:43:49;102200.94;;;24.70;42.74
72857;BME280;62742;52.136;4.500;2022-09-01T09:46:37;102197.31;;;24.87;43.32
72857;BME280;62742;52.136;4.500;2022-09-01T09:49:24;102189.56;;;24.65;41.90
72857;BME280;62742;52.136;4.500;2022-09-01T09:51:54;102188.34;;;24.53;42.30
72857;BME280;62742;52.136;4.500;2022-09-01T09:54:26;102183.97;;;24.86;42.85
72857;BME280;62742;52.136;4.500;2022-09-01T09:59:45;102187.13;;;25.10;40.98
72857;BME280;62742;52.136;4.500;2022-09-01T10:05:00;102169.72;;;25.49;39.88
72857;BME280;62742;52.136;4.500;2022-09-01T10:07:47;102175.69;;;25.54;38.78
72857;BME280;62742;52.136;4.500;2022-09-01T10:10:36;102168.66;;;25.67;38.51
72857;BME280;62742;52.136;4.500;2022-09-01T10:13:09;102172.28;;;25.66;39.00
72857;BME280;62742;52.136;4.500;2022-09-01T10:15:46;102173.38;;;25.78;40.52
72857;BME280;62742;52.136;4.500;2022-09-01T10:18:19;102168.72;;;26.12;37.56
72857;BME280;62742;52.136;4.500;2022-09-01T10:21:08;102155.66;;;26.35;37.77
72857;BME280;62742;52.136;4.500;2022-09-01T10:23:38;102162.84;;;26.20;37.85
72857;BME280;62742;52.136;4.500;2022-09-01T10:26:17;102155.94;;;25.69;38.41
72857;BME280;62742;52.136;4.500;2022-09-01T10:29:08;102156.00;;;25.84;37.76
72857;BME280;62742;52.136;4.500;2022-09-01T10:32:00;102162.22;;;26.30;38.12
72857;BME280;62742;52.136;4.500;2022-09-01T10:34:35;102163.19;;;26.58;36.70
72857;BME280;62742;52.136;4.500;2022-09-01T10:37:05;102156.22;;;26.25;35.94
72857;BME280;62742;52.136;4.500;2022-09-01T10:39:33;102155.28;;;25.96;36.81
72857;BME280;62742;52.136;4.500;2022-09-01T10:42:16;102151.41;;;26.16;36.19
72857;BME280;62742;52.136;4.500;2022-09-01T10:44:57;102153.91;;;26.19;38.23
72857;BME280;62742;52.136;4.500;2022-09-01T10:47:31;102147.00;;;26.44;36.96
72857;BME280;62742;52.136;4.500;2022-09-01T10:50:03;102153.56;;;26.54;35.91
72857;BME280;62742;52.136;4.500;2022-09-01T11:00:53;102139.00;;;27.14;34.97
72857;BME280;62742;52.136;4.500;2022-09-01T11:13:45;102128.94;;;27.31;33.72
72857;BME280;62742;52.136;4.500;2022-09-01T11:16:24;102135.84;;;27.08;33.63
72857;BME280;62742;52.136;4.500;2022-09-01T11:19:30;102132.47;;;26.61;35.53
72857;BME280;62742;52.136;4.500;2022-09-01T11:25:12;102135.88;;;25.75;36.53
72857;BME280;62742;52.136;4.500;2022-09-01T11:33:45;102136.38;;;26.12;35.98
72857;BME280;62742;52.136;4.500;2022-09-01T11:36:23;102123.28;;;26.65;35.51
72857;BME280;62742;52.136;4.500;2022-09-01T11:39:05;102124.56;;;26.58;33.50
72857;BME280;62742;52.136;4.500;2022-09-01T11:41:45;102126.91;;;25.44;35.40
72857;BME280;62742;52.136;4.500;2022-09-01T11:47:18;102132.53;;;25.39;37.20
72857;BME280;62742;52.136;4.500;2022-09-01T11:49:53;102130.56;;;25.27;34.77
72857;BME280;62742;52.136;4.500;2022-09-01T11:52:26;102126.13;;;25.42;36.56
72857;BME280;62742;52.136;4.500;2022-09-01T11:54:57;102120.56;;;25.13;37.58
72857;BME280;62742;52.136;4.500;2022-09-01T11:57:28;102129.66;;;24.79;36.77
72857;BME280;62742;52.136;4.500;2022-09-01T12:00:05;102124.53;;;25.38;35.15
72857;BME280;62742;52.136;4.500;2022-09-01T12:02:55;102115.25;;;25.28;36.70
72857;BME280;62742;52.136;4.500;2022-09-01T12:05:36;102120.00;;;25.23;35.45
72857;BME280;62742;52.136;4.500;2022-09-01T12:08:15;102112.38;;;25.47;34.10
72857;BME280;62742;52.136;4.500;2022-09-01T12:10:44;102107.56;;;25.68;33.64
72857;BME280;62742;52.136;4.500;2022-09-01T12:13:20;102112.53;;;25.60;32.59
72857;BME280;62742;52.136;4.500;2022-09-01T12:16:00;102110.25;;;26.43;33.16
72857;BME280;62742;52.136;4.500;2022-09-01T12:18:34;102103.56;;;26.05;32.02
72857;BME280;62742;52.136;4.500;2022-09-01T12:21:06;102104.63;;;26.17;32.87
72857;BME280;62742;52.136;4.500;2022-09-01T12:23:37;102097.91;;;26.53;33.00
72857;BME280;62742;52.136;4.500;2022-09-01T12:26:12;102097.22;;;26.93;31.50
72857;BME280;62742;52.136;4.500;2022-09-01T12:28:43;102089.81;;;26.82;32.48
72857;BME280;62742;52.136;4.500;2022-09-01T12:31:17;102091.16;;;26.60;30.29
72857;BME280;62742;52.136;4.500;2022-09-01T12:33:47;102095.59;;;26.76;32.05
72857;BME280;62742;52.136;4.500;2022-09-01T12:39:21;102090.84;;;27.75;32.05
72857;BME280;62742;52.136;4.500;2022-09-01T12:47:08;102086.94;;;27.12;31.24
72857;BME280;62742;52.136;4.500;2022-09-01T12:49:43;102097.03;;;26.96;30.26
72857;BME280;62742;52.136;4.500;2022-09-01T12:57:30;102090.78;;;26.38;30.63
72857;BME280;62742;52.136;4.500;2022-09-01T13:05:44;102083.00;;;27.03;29.13
72857;BME280;62742;52.136;4.500;2022-09-01T13:08:17;102084.22;;;27.67;30.49
72857;BME280;62742;52.136;4.500;2022-09-01T13:10:51;102075.63;;;27.74;30.76
72857;BME280;62742;52.136;4.500;2022-09-01T13:13:22;102086.16;;;27.92;28.29
72857;BME280;62742;52.136;4.500;2022-09-01T13:15:53;102077.56;;;27.72;28.57
72857;BME280;62742;52.136;4.500;2022-09-01T13:18:26;102083.44;;;28.05;28.36
72857;BME280;62742;52.136;4.500;2022-09-01T13:20:54;102078.38;;;28.00;28.20
72857;BME280;62742;52.136;4.500;2022-09-01T13:23:22;102076.72;;;27.45;28.87
72857;BME280;62742;52.136;4.500;2022-09-01T13:25:50;102066.28;;;27.93;29.43
72857;BME280;62742;52.136;4.500;2022-09-01T13:28:17;102064.19;;;27.16;28.46
72857;BME280;62742;52.136;4.500;2022-09-01T13:30:51;102062.59;;;27.27;29.69
72857;BME280;62742;52.136;4.500;2022-09-01T13:33:21;102061.59;;;27.15;30.06
72857;BME280;62742;52.136;4.500;2022-09-01T13:35:48;102059.09;;;27.39;29.54
72857;BME280;62742;52.136;4.500;2022-09-01T13:38:17;102057.91;;;27.96;30.04
72857;BME280;62742;52.136;4.500;2022-09-01T13:40:46;102051.75;;;28.20;29.61
72857;BME280;62742;52.136;4.500;2022-09-01T13:43:16;102058.69;;;27.98;29.62
72857;BME280;62742;52.136;4.500;2022-09-01T13:45:45;102059.44;;;28.13;29.59
72857;BME280;62742;52.136;4.500;2022-09-01T13:48:14;102053.56;;;28.32;27.29
72857;BME280;62742;52.136;4.500;2022-09-01T13:50:42;102043.97;;;28.28;28.01
72857;BME280;62742;52.136;4.500;2022-09-01T13:53:10;102053.94;;;28.02;28.94
72857;BME280;62742;52.136;4.500;2022-09-01T13:55:38;102049.91;;;27.41;28.76
72857;BME280;62742;52.136;4.500;2022-09-01T13:58:06;102049.91;;;27.41;30.00
72857;BME280;62742;52.136;4.500;2022-09-01T14:00:36;102045.72;;;26.68;29.10
72857;BME280;62742;52.136;4.500;2022-09-01T14:03:08;102044.00;;;27.22;29.93
72857;BME280;62742;52.136;4.500;2022-09-01T14:05:48;102046.16;;;27.97;31.71
72857;BME280;62742;52.136;4.500;2022-09-01T14:08:18;102050.03;;;28.06;29.84
72857;BME280;62742;52.136;4.500;2022-09-01T14:10:50;102045.44;;;28.58;28.17
72857;BME280;62742;52.136;4.500;2022-09-01T14:13:20;102036.06;;;28.25;28.81
72857;BME280;62742;52.136;4.500;2022-09-01T14:15:49;102036.59;;;28.56;28.07
72857;BME280;62742;52.136;4.500;2022-09-01T14:18:19;102038.56;;;28.41;26.49
72857;BME280;62742;52.136;4.500;2022-09-01T14:20:49;102034.47;;;28.22;26.65
72857;BME280;62742;52.136;4.500;2022-09-01T14:23:18;102033.16;;;28.28;27.20
72857;BME280;62742;52.136;4.500;2022-09-01T14:25:48;102032.50;;;28.11;26.17
72857;BME280;62742;52.136;4.500;2022-09-01T14:28:17;102025.91;;;28.28;28.06
72857;BME280;62742;52.136;4.500;2022-09-01T14:30:45;102021.06;;;28.21;27.11
72857;BME280;62742;52.136;4.500;2022-09-01T14:33:12;102015.00;;;28.04;26.02
72857;BME280;62742;52.136;4.500;2022-09-01T14:35:41;102003.50;;;28.39;28.57
72857;BME280;62742;52.136;4.500;2022-09-01T14:38:12;102012.09;;;27.94;26.43